sensor_id;sensor_type;location;lat;lon;timestamp;pressure;altitude;pressure_sealevel;temperature;humidity
48053;BME280;33824;51.600;5.718;2023-12-07T00:01:05;101828.66;;;1.83;100.00
48053;BME280;33824;51.600;5.718;2023-12-07T00:03:32;101831.41;;;1.82;100.00
48053;BME280;33824;51.600;5.718;2023-12-07T00:05:57;101824.44;;;1.81;100.00
48053;BME280;33824;51.600;5.718;2023-12-07T00:08:23;101824.72;;;1.76;100.00
48053;BME280;33824;51.600;5.718;2023-12-07T00:10:48;101821.63;;;1.70;100.00
48053;BME280;33824;51.600;5.718;2023-12-07T00:13:14;101822.66;;;1.67;100.00
48053;BME280;33824;51.600;5.718;2023-12-07T00:15:40;101814.88;;;1.66;100.00
48053;BME280;33824;51.600;5.718;2023-12-07T00:18:06;101812.31;;;1.64;100.00
48053;BME280;33824;51.600;5.718;2023-12-07T00:20:31;101820.50;;;1.60;100.00
48053;BME280;33824;51.600;5.718;2023-12-07T00:22:57;101823.22;;;1.58;100.00
48053;BME280;33824;51.600;5.718;2023-12-07T00:25:22;101818.88;;;1.57;100.00
48053;BME280;33824;51.600;5.718;2023-12-07T00:27:50;101807.38;;;1.60;100.00
48053;BME280;33824;51.600;5.718;2023-12-07T00:30:15;101813.34;;;1.62;100.00
48053;BME280;33824;51.600;5.718;2023-12-07T00:32:41;101813.34;;;1.62;100.00
48053;BME280;33824;51.600;5.718;2023-12-07T00:35:10;101813.16;;;1.65;100.00
48053;BME280;33824;51.600;5.718;2023-12-07T00:37:36;101807.72;;;1.68;100.00
48053;BME280;33824;51.600;5.718;2023-12-07T00:40:02;101806.59;;;1.72;100.00
48053;BME280;33824;51.600;5.718;2023-12-07T00:42:28;101809.88;;;1.75;100.00
48053;BME280;33824;51.600;5.718;2023-12-07T00:44:54;101810.84;;;1.74;100.00
48053;BME280;33824;51.600;5.718;2023-12-07T00:47:20;101808.22;;;1.74;100.00
48053;BME280;33824;51.600;5.718;2023-12-07T00:49:46;101814.31;;;1.75;100.00
48053;BME280;33824;51.600;5.718;2023-12-07T00:52:12;101818.22;;;1.68;100.00
48053;BME280;33824;51.600;5.718;2023-12-07T00:54:38;101824.59;;;1.64;100.00
48053;BME280;33824;51.600;5.718;2023-12-07T00:57:05;101823.22;;;1.58;100.00
48053;BME280;33824;51.600;5.718;2023-12-07T00:59:31;101823.41;;;1.55;100.00
48053;BME280;33824;51.600;5.718;2023-12-07T01:02:17;101824.13;;;1.43;100.00
48053;BME280;33824;51.600;5.718;2023-12-07T01:04:43;101821.06;;;1.51;100.00
48053;BME280;33824;51.600;5.718;2023-12-07T01:07:09;101825.53;;;1.49;100.00
48053;BME280;33824;51.600;5.718;2023-12-07T01:09:34;101825.06;;;1.42;100.00
48053;BME280;33824;51.600;5.718;2023-12-07T01:12:01;101820.75;;;1.41;100.00
48053;BME280;33824;51.600;5.718;2023-12-07T01:14:27;101822.72;;;1.37;100.00
48053;BME280;33824;51.600;5.718;2023-12-07T01:16:52;101822.91;;;1.34;100.00
48053;BME280;33824;51.600;5.718;2023-12-07T01:19:18;101828.41;;;1.30;100.00
48053;BME280;33824;51.600;5.718;2023-12-07T01:21:43;101829.47;;;1.27;100.00
48053;BME280;33824;51.600;5.718;2023-12-07T01:24:09;101833.84;;;1.27;100.00
48053;BME280;33824;51.600;5.718;2023-12-07T01:26:35;101841.75;;;1.27;100.00
48053;BME280;33824;51.600;5.718;2023-12-07T01:29:01;101836.50;;;1.27;100.00
48053;BME280;33824;51.600;5.718;2023-12-07T01:31:26;101843.53;;;1.26;100.00
48053;BME280;33824;51.600;5.718;2023-12-07T01:33:52;101838.38;;;1.25;100.00
48053;BME280;33824;51.600;5.718;2023-12-07T01:36:20;101841.34;;;1.19;100.00
48053;BME280;33824;51.600;5.718;2023-12-07T01:38:46;101837.97;;;1.17;100.00
48053;BME280;33824;51.600;5.718;2023-12-07T01:41:12;101837.38;;;1.12;100.00
48053;BME280;33824;51.600;5.718;2023-12-07T01:43:44;101850.97;;;1.04;100.00
48053;BME280;33824;51.600;5.718;2023-12-07T01:46:09;101849.66;;;0.81;100.00
48053;BME280;33824;51.600;5.718;2023-12-07T01:48:35;101846.50;;;0.90;100.00
48053;BME280;33824;51.600;5.718;2023-12-07T01:51:01;101840.16;;;0.94;100.00
48053;BME280;33824;51.600;5.718;2023-12-07T01:53:26;101839.78;;;1.01;100.00
48053;BME280;33824;51.600;5.718;2023-12-07T01:55:53;101838.69;;;1.05;100.00
48053;BME280;33824;51.600;5.718;2023-12-07T01:58:20;101843.84;;;1.06;100.00
48053;BME280;33824;51.600;5.718;2023-12-07T02:00:47;101843.09;;;1.04;100.00
48053;BME280;33824;51.600;5.718;2023-12-07T02:03:13;101845.13;;;0.99;100.00
48053;BME280;33824;51.600;5.718;2023-12-07T02:05:42;101850.56;;;0.96;100.00
48053;BME280;33824;51.600;5.718;2023-12-07T02:08:08;101846.75;;;1.02;100.00
48053;BME280;33824;51.600;5.718;2023-12-07T02:10:34;101850.09;;;1.04;100.00
48053;BME280;33824;51.600;5.718;2023-12-07T02:13:00;101851.06;;;1.03;100.00
48053;BME280;33824;51.600;5.718;2023-12-07T02:15:26;101846.63;;;1.03;100.00
48053;BME280;33824;51.600;5.718;2023-12-07T02:18:02;101842.16;;;1.05;100.00
48053;BME280;33824;51.600;5.718;2023-12-07T02:20:31;101840.28;;;1.07;100.00
48053;BME280;33824;51.600;5.718;2023-12-07T02:23:03;101845.72;;;1.04;100.00
48053;BME280;33824;51.600;5.718;2023-12-07T02:25:35;101844.53;;;1.10;100.00
48053;BME280;33824;51.600;5.718;2023-12-07T02:28:02;101845.84;;;1.17;100.00
48053;BME280;33824;51.600;5.718;2023-12-07T02:30:28;101844.94;;;1.18;100.00
48053;BME280;33824;51.600;5.718;2023-12-07T02:32:53;101843.88;;;1.20;100.00
48053;BME280;33824;51.600;5.718;2023-12-07T02:35:19;101845.66;;;1.20;100.00
48053;BME280;33824;51.600;5.718;2023-12-07T02:37:48;101845.75;;;1.18;100.00
48053;BME280;33824;51.600;5.718;2023-12-07T02:40:17;101850.19;;;1.18;100.00
48053;BME280;33824;51.600;5.718;2023-12-07T02:42:43;101848.38;;;1.18;100.00
48053;BME280;33824;51.600;5.718;2023-12-07T02:45:10;101844.94;;;1.18;100.00
48053;BME280;33824;51.600;5.718;2023-12-07T02:47:36;101845.84;;;1.17;100.00
48053;BME280;33824;51.600;5.718;2023-12-07T02:50:04;101838.03;;;1.15;100.00
48053;BME280;33824;51.600;5.718;2023-12-07T02:52:29;101836.28;;;1.16;100.00
48053;BME280;33824;51.600;5.718;2023-12-07T02:54:55;101832.91;;;1.14;100.00
48053;BME280;33824;51.600;5.718;2023-12-07T02:57:21;101830.53;;;1.09;100.00
48053;BME280;33824;51.600;5.718;2023-12-07T02:59:46;101826.13;;;1.10;100.00
48053;BME280;33824;51.600;5.718;2023-12-07T03:02:12;101826.97;;;1.10;100.00
48053;BME280;33824;51.600;5.718;2023-12-07T03:04:37;101834.56;;;1.15;100.00
48053;BME280;33824;51.600;5.718;2023-12-07T03:07:03;101836.00;;;1.20;100.00
48053;BME280;33824;51.600;5.718;2023-12-07T03:09:28;101842.66;;;1.26;100.00
48053;BME280;33824;51.600;5.718;2023-12-07T03:11:56;101833.59;;;1.31;100.00
48053;BME280;33824;51.600;5.718;2023-12-07T03:14:21;101833.50;;;1.33;100.00
48053;BME280;33824;51.600;5.718;2023-12-07T03:16:47;101840.44;;;1.34;100.00
48053;BME280;33824;51.600;5.718;2023-12-07T03:19:12;101835.03;;;1.37;100.00
48053;BME280;33824;51.600;5.718;2023-12-07T03:21:39;101833.31;;;1.36;100.00
48053;BME280;33824;51.600;5.718;2023-12-07T03:24:06;101844.84;;;1.33;100.00
48053;BME280;33824;51.600;5.718;2023-12-07T03:26:33;101841.22;;;1.36;100.00
48053;BME280;33824;51.600;5.718;2023-12-07T03:28:59;101849.09;;;1.36;100.00
48053;BME280;33824;51.600;5.718;2023-12-07T03:31:24;101846.91;;;1.28;100.00
48053;BME280;33824;51.600;5.718;2023-12-07T03:33:50;101849.72;;;1.25;100.00
48053;BME280;33824;51.600;5.718;2023-12-07T03:36:16;101841.56;;;1.30;100.00
48053;BME280;33824;51.600;5.718;2023-12-07T03:38:42;101854.22;;;1.23;100.00
48053;BME280;33824;51.600;5.718;2023-12-07T03:41:08;101849.63;;;1.27;100.00
48053;BME280;33824;51.600;5.718;2023-12-07T03:43:33;101848.69;;;1.28;100.00
48053;BME280;33824;51.600;5.718;2023-12-07T03:45:59;101848.78;;;1.26;100.00
48053;BME280;33824;51.600;5.718;2023-12-07T03:48:24;101855.13;;;1.22;100.00
48053;BME280;33824;51.600;5.718;2023-12-07T03:50:50;101859.53;;;1.22;100.00
48053;BME280;33824;51.600;5.718;2023-12-07T03:53:16;101856.63;;;1.12;100.00
48053;BME280;33824;51.600;5.718;2023-12-07T03:55:41;101860.56;;;1.19;100.00
48053;BME280;33824;51.600;5.718;2023-12-07T03:58:07;101857.88;;;1.21;100.00
48053;BME280;33824;51.600;5.718;2023-12-07T04:00:32;101851.66;;;1.22;100.00
48053;BME280;33824;51.600;5.718;2023-12-07T04:02:58;101862.16;;;1.22;100.00
48053;BME280;33824;51.600;5.718;2023-12-07T04:05:24;101860.25;;;1.25;100.00
48053;BME280;33824;51.600;5.718;2023-12-07T04:07:49;101873.63;;;1.21;100.00
48053;BME280;33824;51.600;5.718;2023-12-07T04:10:15;101876.44;;;1.18;100.00
48053;BME280;33824;51.600;5.718;2023-12-07T04:12:41;101885.16;;;1.18;100.00
48053;BME280;33824;51.600;5.718;2023-12-07T04:15:07;101878.50;;;1.13;100.00
48053;BME280;33824;51.600;5.718;2023-12-07T04:17:33;101881.19;;;1.11;100.00
48053;BME280;33824;51.600;5.718;2023-12-07T04:19:58;101879.41;;;1.12;100.00
48053;BME280;33824;51.600;5.718;2023-12-07T04:22:24;101879.41;;;1.12;100.00
48053;BME280;33824;51.600;5.718;2023-12-07T04:24:49;101873.13;;;1.14;100.00
48053;BME280;33824;51.600;5.718;2023-12-07T04:27:15;101872.31;;;1.14;100.00
48053;BME280;33824;51.600;5.718;2023-12-07T04:29:41;101880.34;;;1.11;100.00
48053;BME280;33824;51.600;5.718;2023-12-07T04:32:07;101885.88;;;1.06;100.00
48053;BME280;33824;51.600;5.718;2023-12-07T04:34:33;101896.09;;;1.11;100.00
48053;BME280;33824;51.600;5.718;2023-12-07T04:36:59;101894.13;;;1.14;100.00
48053;BME280;33824;51.600;5.718;2023-12-07T04:39:25;101891.25;;;1.19;100.00
48053;BME280;33824;51.600;5.718;2023-12-07T04:41:50;101886.97;;;1.18;100.00
48053;BME280;33824;51.600;5.718;2023-12-07T04:44:16;101885.75;;;1.23;100.00
48053;BME280;33824;51.600;5.718;2023-12-07T04:46:42;101894.41;;;1.25;100.00
48053;BME280;33824;51.600;5.718;2023-12-07T04:49:08;101894.94;;;1.30;100.00
48053;BME280;33824;51.600;5.718;2023-12-07T04:51:34;101893.19;;;1.31;100.00
48053;BME280;33824;51.600;5.718;2023-12-07T04:54:00;101894.56;;;1.22;100.00
48053;BME280;33824;51.600;5.718;2023-12-07T04:56:25;101891.19;;;1.20;100.00
48053;BME280;33824;51.600;5.718;2023-12-07T04:58:51;101889.22;;;1.24;100.00
48053;BME280;33824;51.600;5.718;2023-12-07T05:01:16;101885.81;;;1.22;100.00
48053;BME280;33824;51.600;5.718;2023-12-07T05:03:45;101888.44;;;1.22;100.00
48053;BME280;33824;51.600;5.718;2023-12-07T05:06:10;101889.72;;;1.15;100.00
48053;BME280;33824;51.600;5.718;2023-12-07T05:08:39;101882.81;;;1.14;100.00
48053;BME280;33824;51.600;5.718;2023-12-07T05:11:04;101884.84;;;1.09;100.00
48053;BME280;33824;51.600;5.718;2023-12-07T05:13:30;101878.66;;;1.10;100.00
48053;BME280;33824;51.600;5.718;2023-12-07T05:15:57;101877.72;;;1.11;100.00
48053;BME280;33824;51.600;5.718;2023-12-07T05:18:23;101878.56;;;1.11;100.00
48053;BME280;33824;51.600;5.718;2023-12-07T05:20:49;101869.28;;;1.06;100.00
48053;BME280;33824;51.600;5.718;2023-12-07T05:23:15;101867.66;;;1.03;100.00
48053;BME280;33824;51.600;5.718;2023-12-07T05:25:40;101862.91;;;1.10;100.00
48053;BME280;33824;51.600;5.718;2023-12-07T05:28:06;101867.31;;;1.09;100.00
48053;BME280;33824;51.600;5.718;2023-12-07T05:30:32;101866.72;;;1.04;100.00
48053;BME280;33824;51.600;5.718;2023-12-07T05:32:57;101871.97;;;1.04;100.00
48053;BME280;33824;51.600;5.718;2023-12-07T05:35:23;101874.09;;;1.13;100.00
48053;BME280;33824;51.600;5.718;2023-12-07T05:37:49;101875.31;;;1.22;100.00
48053;BME280;33824;51.600;5.718;2023-12-07T05:40:14;101872.53;;;1.25;100.00
48053;BME280;33824;51.600;5.718;2023-12-07T05:42:41;101866.25;;;1.27;100.00
48053;BME280;33824;51.600;5.718;2023-12-07T05:45:07;101864.25;;;1.17;100.00
48053;BME280;33824;51.600;5.718;2023-12-07T05:47:35;101869.09;;;1.09;100.00
48053;BME280;33824;51.600;5.718;2023-12-07T05:50:00;101868.59;;;1.02;100.00
48053;BME280;33824;51.600;5.718;2023-12-07T05:52:29;101861.47;;;1.04;100.00
48053;BME280;33824;51.600;5.718;2023-12-07T05:54:54;101864.69;;;1.09;100.00
48053;BME280;33824;51.600;5.718;2023-12-07T05:57:20;101855.03;;;1.10;100.00
48053;BME280;33824;51.600;5.718;2023-12-07T05:59:45;101858.22;;;1.15;100.00
48053;BME280;33824;51.600;5.718;2023-12-07T06:02:11;101860.94;;;1.13;100.00
48053;BME280;33824;51.600;5.718;2023-12-07T06:04:37;101858.50;;;1.10;100.00
48053;BME280;33824;51.600;5.718;2023-12-07T06:07:03;101853.31;;;1.09;100.00
48053;BME280;33824;51.600;5.718;2023-12-07T06:09:29;101853.16;;;1.12;100.00
48053;BME280;33824;51.600;5.718;2023-12-07T06:11:55;101848.75;;;1.12;100.00
48053;BME280;33824;51.600;5.718;2023-12-07T06:14:20;101848.75;;;1.12;100.00
48053;BME280;33824;51.600;5.718;2023-12-07T06:16:48;101850.44;;;1.13;100.00
48053;BME280;33824;51.600;5.718;2023-12-07T06:19:14;101846.84;;;1.14;100.00
48053;BME280;33824;51.600;5.718;2023-12-07T06:21:40;101853.25;;;1.10;100.00
48053;BME280;33824;51.600;5.718;2023-12-07T06:24:05;101855.78;;;1.12;100.00
48053;BME280;33824;51.600;5.718;2023-12-07T06:26:32;101855.03;;;1.10;100.00
48053;BME280;33824;51.600;5.718;2023-12-07T06:28:58;101869.00;;;1.10;100.00
48053;BME280;33824;51.600;5.718;2023-12-07T06:31:24;101862.47;;;1.17;100.00
48053;BME280;33824;51.600;5.718;2023-12-07T06:33:49;101866.41;;;1.24;100.00
48053;BME280;33824;51.600;5.718;2023-12-07T06:36:22;101870.16;;;1.20;100.00
48053;BME280;33824;51.600;5.718;2023-12-07T06:38:48;101869.78;;;1.26;100.00
48053;BME280;33824;51.600;5.718;2023-12-07T06:41:14;101863.16;;;1.35;100.00
48053;BME280;33824;51.600;5.718;2023-12-07T06:43:41;101866.44;;;1.38;100.00
48053;BME280;33824;51.600;5.718;2023-12-07T06:46:07;101872.75;;;1.36;100.00
48053;BME280;33824;51.600;5.718;2023-12-07T06:48:32;101866.25;;;1.41;100.00
48053;BME280;33824;51.600;5.718;2023-12-07T06:50:58;101868.03;;;1.41;100.00
48053;BME280;33824;51.600;5.718;2023-12-07T06:53:23;101861.00;;;1.41;100.00
48053;BME280;33824;51.600;5.718;2023-12-07T06:55:49;101859.03;;;1.45;100.00
48053;BME280;33824;51.600;5.718;2023-12-07T06:58:14;101861.66;;;1.45;100.00
48053;BME280;33824;51.600;5.718;2023-12-07T07:00:40;101858.13;;;1.46;100.00
48053;BME280;33824;51.600;5.718;2023-12-07T07:03:05;101860.06;;;1.42;100.00
48053;BME280;33824;51.600;5.718;2023-12-07T07:05:31;101858.03;;;1.48;100.00
48053;BME280;33824;51.600;5.718;2023-12-07T07:07:57;101856.16;;;1.50;100.00
48053;BME280;33824;51.600;5.718;2023-12-07T07:10:22;101851.00;;;1.48;100.00
48053;BME280;33824;51.600;5.718;2023-12-07T07:12:48;101852.66;;;1.49;100.00
48053;BME280;33824;51.600;5.718;2023-12-07T07:15:15;101851.81;;;1.49;100.00
48053;BME280;33824;51.600;5.718;2023-12-07T07:17:41;101855.13;;;1.52;100.00
48053;BME280;33824;51.600;5.718;2023-12-07T07:20:07;101854.19;;;1.53;100.00
48053;BME280;33824;51.600;5.718;2023-12-07T07:22:33;101849.88;;;1.52;100.00
48053;BME280;33824;51.600;5.718;2023-12-07T07:25:00;101849.88;;;1.52;100.00
48053;BME280;33824;51.600;5.718;2023-12-07T07:27:26;101845.19;;;1.57;100.00
48053;BME280;33824;51.600;5.718;2023-12-07T07:29:51;101852.88;;;1.60;100.00
48053;BME280;33824;51.600;5.718;2023-12-07T07:32:17;101846.69;;;1.61;100.00
48053;BME280;33824;51.600;5.718;2023-12-07T07:34:43;101855.50;;;1.60;100.00
48053;BME280;33824;51.600;5.718;2023-12-07T07:37:08;101846.78;;;1.60;100.00
48053;BME280;33824;51.600;5.718;2023-12-07T07:39:34;101854.50;;;1.63;100.00
48053;BME280;33824;51.600;5.718;2023-12-07T07:42:00;101856.75;;;1.69;100.00
48053;BME280;33824;51.600;5.718;2023-12-07T07:44:25;101854.31;;;1.66;100.00
48053;BME280;33824;51.600;5.718;2023-12-07T07:46:51;101856.00;;;1.67;100.00
48053;BME280;33824;51.600;5.718;2023-12-07T07:49:17;101869.03;;;1.68;100.00
48053;BME280;33824;51.600;5.718;2023-12-07T07:51:42;101872.50;;;1.69;100.00
48053;BME280;33824;51.600;5.718;2023-12-07T07:54:08;101879.28;;;1.73;100.00
48053;BME280;33824;51.600;5.718;2023-12-07T07:56:33;101883.50;;;1.75;100.00
48053;BME280;33824;51.600;5.718;2023-12-07T07:58:59;101884.47;;;1.74;100.00
48053;BME280;33824;51.600;5.718;2023-12-07T08:01:26;101878.16;;;1.77;100.00
48053;BME280;33824;51.600;5.718;2023-12-07T08:03:51;101877.13;;;1.79;100.00
48053;BME280;33824;51.600;5.718;2023-12-07T08:06:17;101875.81;;;1.86;100.00
48053;BME280;33824;51.600;5.718;2023-12-07T08:08:44;101868.75;;;1.87;100.00
48053;BME280;33824;51.600;5.718;2023-12-07T08:11:09;101867.19;;;1.84;100.00
48053;BME280;33824;51.600;5.718;2023-12-07T08:13:35;101870.84;;;1.82;100.00
48053;BME280;33824;51.600;5.718;2023-12-07T08:16:01;101862.38;;;1.77;100.00
48053;BME280;33824;51.600;5.718;2023-12-07T08:18:27;101863.13;;;1.79;100.00
48053;BME280;33824;51.600;5.718;2023-12-07T08:20:52;101859.47;;;1.81;100.00
48053;BME280;33824;51.600;5.718;2023-12-07T08:23:18;101863.22;;;1.77;100.00
48053;BME280;33824;51.600;5.718;2023-12-07T08:25:43;101868.69;;;1.74;100.00
48053;BME280;33824;51.600;5.718;2023-12-07T08:28:09;101863.13;;;1.79;100.00
48053;BME280;33824;51.600;5.718;2023-12-07T08:30:35;101864.94;;;1.78;100.00
48053;BME280;33824;51.600;5.718;2023-12-07T08:33:01;101870.09;;;1.80;100.00
48053;BME280;33824;51.600;5.718;2023-12-07T08:35:27;101873.38;;;1.83;100.00
48053;BME280;33824;51.600;5.718;2023-12-07T08:37:53;101873.94;;;1.88;100.00
48053;BME280;33824;51.600;5.718;2023-12-07T08:40:18;101870.38;;;1.89;100.00
48053;BME280;33824;51.600;5.718;2023-12-07T08:42:45;101869.41;;;1.90;100.00
48053;BME280;33824;51.600;5.718;2023-12-07T08:45:11;101859.00;;;1.89;100.00
48053;BME280;33824;51.600;5.718;2023-12-07T08:47:39;101851.00;;;1.90;100.00
48053;BME280;33824;51.600;5.718;2023-12-07T08:50:05;101854.59;;;1.89;100.00
48053;BME280;33824;51.600;5.718;2023-12-07T08:52:33;101858.44;;;1.98;100.00
48053;BME280;33824;51.600;5.718;2023-12-07T08:54:59;101857.41;;;2.01;100.00
48053;BME280;33824;51.600;5.718;2023-12-07T08:57:25;101863.91;;;2.09;100.00
48053;BME280;33824;51.600;5.718;2023-12-07T08:59:50;101862.00;;;2.11;100.00
48053;BME280;33824;51.600;5.718;2023-12-07T09:02:16;101860.03;;;2.15;100.00
48053;BME280;33824;51.600;5.718;2023-12-07T09:04:42;101857.22;;;2.18;100.00
48053;BME280;33824;51.600;5.718;2023-12-07T09:07:08;101855.13;;;2.23;100.00
48053;BME280;33824;51.600;5.718;2023-12-07T09:09:34;101856.44;;;2.30;100.00
48053;BME280;33824;51.600;5.718;2023-12-07T09:12:00;101858.34;;;2.28;100.00
48053;BME280;33824;51.600;5.718;2023-12-07T09:14:26;101854.56;;;2.32;100.00
48053;BME280;33824;51.600;5.718;2023-12-07T09:16:52;101849.75;;;2.38;100.00
48053;BME280;33824;51.600;5.718;2023-12-07T09:19:17;101844.22;;;2.43;100.00
48053;BME280;33824;51.600;5.718;2023-12-07T09:21:43;101851.16;;;2.44;100.00
48053;BME280;33824;51.600;5.718;2023-12-07T09:24:08;101845.50;;;2.50;100.00
48053;BME280;33824;51.600;5.718;2023-12-07T09:26:34;101852.34;;;2.53;100.00
48053;BME280;33824;51.600;5.718;2023-12-07T09:29:00;101855.53;;;2.58;100.00
48053;BME280;33824;51.600;5.718;2023-12-07T09:31:26;101848.09;;;2.64;100.00
48053;BME280;33824;51.600;5.718;2023-12-07T09:33:52;101840.75;;;2.69;100.00
48053;BME280;33824;51.600;5.718;2023-12-07T09:36:19;101847.69;;;2.70;100.00
48053;BME280;33824;51.600;5.718;2023-12-07T09:38:47;101847.19;;;2.78;100.00
48053;BME280;33824;51.600;5.718;2023-12-07T09:41:13;101845.31;;;2.80;100.00
48053;BME280;33824;51.600;5.718;2023-12-07T09:43:38;101847.44;;;2.87;100.00
48053;BME280;33824;51.600;5.718;2023-12-07T09:46:05;101847.03;;;2.94;100.00
48053;BME280;33824;51.600;5.718;2023-12-07T09:48:31;101839.69;;;2.99;100.00
48053;BME280;33824;51.600;5.718;2023-12-07T09:50:59;101825.28;;;3.04;100.00
48053;BME280;33824;51.600;5.718;2023-12-07T09:53:27;101819.28;;;3.15;100.00
48053;BME280;33824;51.600;5.718;2023-12-07T09:55:54;101815.38;;;3.20;100.00
48053;BME280;33824;51.600;5.718;2023-12-07T09:58:20;101815.19;;;3.23;100.00
48053;BME280;33824;51.600;5.718;2023-12-07T10:00:48;101809.28;;;3.32;100.00
48053;BME280;33824;51.600;5.718;2023-12-07T10:03:21;101814.97;;;3.39;100.00
48053;BME280;33824;51.600;5.718;2023-12-07T10:05:58;101810.78;;;3.49;100.00
48053;BME280;33824;51.600;5.718;2023-12-07T10:08:29;101798.44;;;3.62;100.00
48053;BME280;33824;51.600;5.718;2023-12-07T10:11:06;101800.97;;;3.64;100.00
48053;BME280;33824;51.600;5.718;2023-12-07T10:13:32;101780.69;;;3.77;100.00
48053;BME280;33824;51.600;5.718;2023-12-07T10:16:14;101778.59;;;3.69;100.00
48053;BME280;33824;51.600;5.718;2023-12-07T10:18:44;101774.56;;;3.89;100.00
48053;BME280;33824;51.600;5.718;2023-12-07T10:21:10;101774.22;;;3.94;100.00
48053;BME280;33824;51.600;5.718;2023-12-07T10:23:37;101769.47;;;3.99;100.00
48053;BME280;33824;51.600;5.718;2023-12-07T10:26:05;101765.78;;;4.01;100.00
48053;BME280;33824;51.600;5.718;2023-12-07T10:28:31;101759.22;;;4.07;100.00
48053;BME280;33824;51.600;5.718;2023-12-07T10:30:56;101751.41;;;4.05;100.00
48053;BME280;33824;51.600;5.718;2023-12-07T10:33:22;101754.03;;;4.05;100.00
48053;BME280;33824;51.600;5.718;2023-12-07T10:35:48;101742.31;;;4.09;100.00
48053;BME280;33824;51.600;5.718;2023-12-07T10:38:16;101748.13;;;4.14;100.00
48053;BME280;33824;51.600;5.718;2023-12-07T10:40:42;101740.91;;;4.16;100.00
48053;BME280;33824;51.600;5.718;2023-12-07T10:43:08;101729.50;;;4.16;100.00
48053;BME280;33824;51.600;5.718;2023-12-07T10:45:35;101724.00;;;4.19;100.00
48053;BME280;33824;51.600;5.718;2023-12-07T10:48:06;101728.47;;;4.18;100.00
48053;BME280;33824;51.600;5.718;2023-12-07T10:50:37;101721.50;;;4.17;100.00
48053;BME280;33824;51.600;5.718;2023-12-07T10:53:34;101723.63;;;4.12;100.00
48053;BME280;33824;51.600;5.718;2023-12-07T10:56:10;101710.19;;;4.15;100.00
48053;BME280;33824;51.600;5.718;2023-12-07T10:58:37;101712.16;;;4.24;100.00
48053;BME280;33824;51.600;5.718;2023-12-07T11:01:07;101708.13;;;4.31;100.00
48053;BME280;33824;51.600;5.718;2023-12-07T11:03:32;101705.66;;;4.41;100.00
48053;BME280;33824;51.600;5.718;2023-12-07T11:05:58;101696.88;;;4.41;100.00
48053;BME280;33824;51.600;5.718;2023-12-07T11:11:34;101700.19;;;4.31;100.00
48053;BME280;33824;51.600;5.718;2023-12-07T11:14:05;101692.22;;;4.44;100.00
48053;BME280;33824;51.600;5.718;2023-12-07T11:16:39;101696.66;;;4.44;100.00
48053;BME280;33824;51.600;5.718;2023-12-07T11:19:42;101690.63;;;4.42;100.00
48053;BME280;33824;51.600;5.718;2023-12-07T11:22:13;101688.78;;;4.55;100.00
48053;BME280;33824;51.600;5.718;2023-12-07T11:27:18;101675.94;;;4.61;100.00
48053;BME280;33824;51.600;5.718;2023-12-07T11:29:46;101665.72;;;4.57;100.00
48053;BME280;33824;51.600;5.718;2023-12-07T11:32:12;101660.44;;;4.57;100.00
48053;BME280;33824;51.600;5.718;2023-12-07T11:34:39;101658.53;;;4.59;100.00
48053;BME280;33824;51.600;5.718;2023-12-07T11:37:09;101658.19;;;4.63;100.00
48053;BME280;33824;51.600;5.718;2023-12-07T11:39:35;101653.63;;;4.65;100.00
48053;BME280;33824;51.600;5.718;2023-12-07T11:42:11;101645.00;;;4.63;100.00
48053;BME280;33824;51.600;5.718;2023-12-07T11:44:38;101637.19;;;4.73;100.00
48053;BME280;33824;51.600;5.718;2023-12-07T11:47:05;101641.44;;;4.87;100.00
48053;BME280;33824;51.600;5.718;2023-12-07T11:49:31;101635.31;;;4.86;100.00
48053;BME280;33824;51.600;5.718;2023-12-07T11:51:58;101635.31;;;4.86;100.00
48053;BME280;33824;51.600;5.718;2023-12-07T11:54:25;101625.44;;;4.88;100.00
48053;BME280;33824;51.600;5.718;2023-12-07T11:56:53;101616.31;;;4.92;100.00
48053;BME280;33824;51.600;5.718;2023-12-07T11:59:18;101606.09;;;4.99;100.00
48053;BME280;33824;51.600;5.718;2023-12-07T12:01:48;101607.69;;;5.01;100.00
48053;BME280;33824;51.600;5.718;2023-12-07T12:04:15;101604.56;;;5.07;100.00
48053;BME280;33824;51.600;5.718;2023-12-07T12:06:45;101608.75;;;4.99;100.00
48053;BME280;33824;51.600;5.718;2023-12-07T12:09:14;101608.88;;;4.86;100.00
48053;BME280;33824;51.600;5.718;2023-12-07T12:11:46;101601.34;;;4.47;100.00
48053;BME280;33824;51.600;5.718;2023-12-07T12:14:16;101605.47;;;4.62;100.00
48053;BME280;33824;51.600;5.718;2023-12-07T12:16:45;101602.47;;;4.66;100.00
48053;BME280;33824;51.600;5.718;2023-12-07T12:19:11;101601.53;;;4.78;100.00
48053;BME280;33824;51.600;5.718;2023-12-07T12:21:37;101598.16;;;4.88;100.00
48053;BME280;33824;51.600;5.718;2023-12-07T12:24:06;101600.13;;;4.97;100.00
48053;BME280;33824;51.600;5.718;2023-12-07T12:26:36;101590.03;;;5.02;100.00
48053;BME280;33824;51.600;5.718;2023-12-07T12:29:08;101585.81;;;5.10;100.00
48053;BME280;33824;51.600;5.718;2023-12-07T12:31:35;101587.47;;;5.22;100.00
48053;BME280;33824;51.600;5.718;2023-12-07T12:34:01;101590.13;;;5.33;100.00
48053;BME280;33824;51.600;5.718;2023-12-07T12:36:27;101581.94;;;5.37;100.00
48053;BME280;33824;51.600;5.718;2023-12-07T12:38:53;101565.38;;;5.23;100.00
48053;BME280;33824;51.600;5.718;2023-12-07T12:41:20;101568.63;;;5.16;100.00
48053;BME280;33824;51.600;5.718;2023-12-07T12:43:46;101566.69;;;5.07;100.00
48053;BME280;33824;51.600;5.718;2023-12-07T12:46:15;101566.59;;;4.97;100.00
48053;BME280;33824;51.600;5.718;2023-12-07T12:48:58;101555.78;;;4.78;100.00
48053;BME280;33824;51.600;5.718;2023-12-07T12:51:25;101550.97;;;4.72;100.00
48053;BME280;33824;51.600;5.718;2023-12-07T12:53:52;101547.13;;;4.65;100.00